Time;durP1;ratioP1;P1;durP2;ratioP2;P2;SDS_P1;SDS_P2;PMS_P1;PMS_P2;Temp;Humidity;BMP_temperature;BMP_pressure;BME280_temperature;BME280_humidity;BME280_pressure;Samples;Min_cycle;Max_cycle;Signal;HPM_P1;HPM_P2
2022/12/22 03:26:37;;;;;;;20.70;17.80;;;9.50;99.90;;;;;;5029493;28;20105;-66
2022/12/22 03:29:03;;;;;;;20.17;17.77;;;9.50;99.90;;;;;;5032633;28;20022;-65
2022/12/22 03:31:29;;;;;;;19.75;17.25;;;9.50;99.90;;;;;;5027401;28;20022;-65
2022/12/22 03:33:54;;;;;;;20.67;18.45;;;9.50;99.90;;;;;;5032253;28;20096;-65
2022/12/22 03:36:19;;;;;;;21.02;17.75;;;9.50;99.90;;;;;;5030901;28;20053;-65
2022/12/22 03:38:45;;;;;;;19.42;16.83;;;9.50;99.90;;;;;;5031240;28;20038;-65
2022/12/22 03:46:28;;;;;;;19.63;17.45;;;9.50;99.90;;;;;;5028039;28;20114;-66
2022/12/22 03:46:40;;;;;;;20.95;18.15;;;9.50;99.90;;;;;;5030934;28;20124;-65
2022/12/22 03:49:08;;;;;;;21.95;19.13;;;9.50;99.90;;;;;;5028601;28;20021;-65
2022/12/22 03:51:36;;;;;;;21.80;19.20;;;9.50;99.90;;;;;;5031646;28;20021;-65
2022/12/22 03:54:02;;;;;;;22.05;19.35;;;9.50;99.90;;;;;;5028229;28;20032;-65
2022/12/22 03:56:28;;;;;;;24.02;19.58;;;9.50;99.90;;;;;;5032328;28;20021;-65
2022/12/22 03:58:53;;;;;;;22.92;20.25;;;9.50;99.90;;;;;;5030418;28;20030;-65
2022/12/22 04:01:19;;;;;;;22.27;19.60;;;9.50;99.90;;;;;;5031651;28;20108;-65
2022/12/22 04:03:45;;;;;;;22.10;19.58;;;9.50;99.90;;;;;;5029445;28;20029;-65
2022/12/22 04:06:11;;;;;;;22.92;20.23;;;9.50;99.90;;;;;;5032041;28;20025;-65
2022/12/22 04:08:36;;;;;;;25.23;20.70;;;9.50;99.90;;;;;;5027788;28;20493;-65
2022/12/22 04:13:46;;;;;;;24.55;20.85;;;9.50;99.90;;;;;;5030491;28;20036;-65
2022/12/22 04:16:11;;;;;;;24.50;19.80;;;9.50;99.90;;;;;;5031692;28;20037;-65
2022/12/22 04:18:37;;;;;;;23.25;18.92;;;9.50;99.90;;;;;;5031097;28;20397;-65
2022/12/22 04:21:02;;;;;;;22.38;18.92;;;9.50;99.90;;;;;;5029725;28;20404;-65
2022/12/22 04:23:28;;;;;;;25.30;19.92;;;9.50;99.90;;;;;;5029474;28;20029;-65
2022/12/22 04:25:53;;;;;;;26.88;21.27;;;9.50;99.90;;;;;;5031317;28;20485;-65
2022/12/22 04:28:19;;;;;;;25.55;21.30;;;9.50;99.90;;;;;;5027548;28;20112;-65
2022/12/22 04:30:47;;;;;;;24.00;20.55;;;9.50;99.90;;;;;;5030468;28;20053;-65
2022/12/22 04:33:12;;;;;;;27.73;21.17;;;9.50;99.90;;;;;;5031331;28;20037;-65
2022/12/22 04:35:38;;;;;;;23.63;19.80;;;9.50;99.90;;;;;;5028791;28;20045;-65
2022/12/22 04:38:03;;;;;;;20.05;17.25;;;9.50;99.90;;;;;;5029938;28;20516;-65
2022/12/22 04:40:29;;;;;;;22.10;18.38;;;9.50;99.90;;;;;;5029287;28;20035;-65
2022/12/22 04:42:54;;;;;;;18.67;15.35;;;9.50;99.90;;;;;;5028790;28;20025;-65
2022/12/22 04:45:20;;;;;;;18.75;14.15;;;9.60;99.90;;;;;;5030460;28;20049;-65
2022/12/22 04:47:45;;;;;;;15.82;13.05;;;9.60;99.90;;;;;;5029329;28;20026;-65
2022/12/22 04:50:11;;;;;;;15.85;13.13;;;9.70;99.90;;;;;;5030713;28;20029;-65
2022/12/22 04:52:37;;;;;;;16.70;12.90;;;9.80;99.90;;;;;;5026781;28;20032;-65
2022/12/22 04:55:03;;;;;;;16.05;12.75;;;9.80;99.90;;;;;;5028713;28;20025;-65
2022/12/22 04:57:28;;;;;;;15.93;11.77;;;9.80;99.90;;;;;;5027804;28;20021;-65
2022/12/22 04:59:54;;;;;;;14.80;12.13;;;9.90;99.90;;;;;;5030645;28;20044;-65
2022/12/22 05:02:20;;;;;;;15.27;12.10;;;9.90;99.90;;;;;;5029151;28;20029;-65
2022/12/22 05:04:45;;;;;;;18.90;13.45;;;9.90;99.90;;;;;;5029473;28;20044;-66
2022/12/22 05:07:11;;;;;;;20.75;14.68;;;10.00;99.90;;;;;;5028046;28;20096;-65
2022/12/22 05:09:36;;;;;;;17.00;12.88;;;10.00;99.90;;;;;;5030740;28;20025;-65
2022/12/22 05:12:53;;;;;;;18.38;13.18;;;10.00;99.90;;;;;;5028774;28;20033;-66
2022/12/22 05:14:48;;;;;;;17.48;12.07;;;10.00;99.90;;;;;;5030291;28;20479;-65
2022/12/22 05:17:51;;;;;;;18.65;12.07;;;10.00;99.90;;;;;;5030376;28;20120;-65
2022/12/22 05:20:18;;;;;;;19.40;11.05;;;10.00;99.90;;;;;;5033344;28;20024;-65
2022/12/22 05:22:43;;;;;;;19.58;11.30;;;10.00;99.90;;;;;;5028170;28;20476;-65
2022/12/22 05:25:09;;;;;;;17.52;11.65;;;10.00;99.90;;;;;;5044232;28;20049;-65
2022/12/22 05:27:35;;;;;;;20.35;11.55;;;10.00;99.90;;;;;;5028860;28;20105;-65
2022/12/22 05:30:01;;;;;;;17.42;11.57;;;10.00;99.90;;;;;;5029279;28;20013;-65
2022/12/22 05:32:27;;;;;;;14.60;10.65;;;10.00;99.90;;;;;;5027235;28;20381;-65
2022/12/22 05:34:52;;;;;;;20.42;11.55;;;10.00;99.90;;;;;;5029658;28;20465;-65
2022/12/22 05:37:18;;;;;;;20.70;11.02;;;10.00;99.90;;;;;;5028725;28;20498;-65
2022/12/22 05:39:43;;;;;;;21.63;10.70;;;10.00;99.90;;;;;;5029167;28;20529;-65
2022/12/22 05:42:09;;;;;;;14.20;10.48;;;10.00;99.90;;;;;;5028311;28;20034;-65
2022/12/22 05:44:34;;;;;;;15.65;10.73;;;10.00;99.90;;;;;;5028014;28;20025;-67
2022/12/22 05:47:00;;;;;;;15.10;11.25;;;10.00;99.90;;;;;;5030052;28;20485;-65
2022/12/22 05:49:25;;;;;;;12.55;10.68;;;10.00;99.90;;;;;;5026842;28;20022;-65
2022/12/22 05:52:07;;;;;;;15.18;11.10;;;10.00;99.90;;;;;;5029891;28;20026;-65
2022/12/22 05:54:32;;;;;;;15.45;11.23;;;10.00;99.90;;;;;;5028209;28;20029;-66
2022/12/22 05:56:58;;;;;;;13.52;10.52;;;10.00;99.90;;;;;;5029123;28;20032;-65
2022/12/22 05:59:23;;;;;;;12.30;10.38;;;10.10;99.90;;;;;;5029637;28;20026;-65
2022/12/22 06:01:49;;;;;;;14.32;10.85;;;10.10;99.90;;;;;;5027790;28;20037;-65
2022/12/22 06:04:14;;;;;;;13.95;10.80;;;10.10;99.90;;;;;;5042276;28;20077;-66
2022/12/22 06:06:40;;;;;;;14.82;10.23;;;10.10;99.90;;;;;;5029535;28;20456;-66
2022/12/22 06:09:05;;;;;;;13.93;9.95;;;10.10;99.90;;;;;;5029444;28;20029;-65
2022/12/22 06:11:31;;;;;;;14.82;10.85;;;10.10;99.90;;;;;;5026736;28;20029;-65
2022/12/22 06:13:56;;;;;;;13.45;10.52;;;10.10;99.90;;;;;;5026634;28;20022;-65
2022/12/22 06:16:22;;;;;;;15.70;11.38;;;10.10;99.90;;;;;;5028583;28;20021;-66
2022/12/22 06:19:29;;;;;;;15.50;11.50;;;10.10;99.90;;;;;;5028555;28;20358;-66
2022/12/22 06:21:48;;;;;;;18.15;13.45;;;10.10;99.90;;;;;;5028264;28;20030;-65
2022/12/22 06:24:13;;;;;;;21.60;15.68;;;10.10;99.90;;;;;;5029734;28;20025;-65
2022/12/22 06:26:39;;;;;;;19.65;15.55;;;10.10;99.90;;;;;;5021808;28;20105;-66
2022/12/22 06:29:04;;;;;;;23.08;16.58;;;10.10;99.90;;;;;;5026429;28;20037;-65
2022/12/22 06:31:30;;;;;;;25.08;17.10;;;10.10;99.90;;;;;;5021537;28;20485;-65
2022/12/22 06:33:56;;;;;;;27.00;17.98;;;10.10;99.90;;;;;;5034238;28;20036;-65
2022/12/22 06:36:22;;;;;;;23.92;15.88;;;10.10;99.90;;;;;;5034180;28;20045;-65
2022/12/22 06:38:47;;;;;;;25.73;17.10;;;10.10;99.90;;;;;;5015987;28;20058;-65
2022/12/22 06:41:13;;;;;;;26.48;18.17;;;10.10;99.90;;;;;;5032448;28;20029;-65
2022/12/22 06:43:38;;;;;;;25.02;17.73;;;10.10;99.90;;;;;;5036144;28;20389;-65
2022/12/22 06:46:04;;;;;;;27.90;19.25;;;10.10;99.90;;;;;;5027506;28;20414;-66
2022/12/22 06:48:29;;;;;;;30.08;19.88;;;10.10;99.90;;;;;;5014890;28;20026;-65
2022/12/22 06:50:58;;;;;;;27.65;18.60;;;10.10;99.90;;;;;;5027885;28;20022;-65
2022/12/22 06:53:25;;;;;;;31.13;20.63;;;10.10;99.90;;;;;;5024600;28;20026;-65
2022/12/22 06:55:51;;;;;;;31.50;21.10;;;10.00;99.90;;;;;;5021455;28;20302;-66
2022/12/22 06:58:16;;;;;;;32.08;20.40;;;10.00;99.90;;;;;;5034311;28;20029;-65
2022/12/22 07:00:44;;;;;;;29.35;19.52;;;10.00;99.90;;;;;;5015609;28;20495;-66
2022/12/22 07:03:09;;;;;;;32.72;20.38;;;10.00;99.90;;;;;;5026965;28;20049;-66
2022/12/22 07:05:35;;;;;;;27.52;19.05;;;10.00;99.90;;;;;;5033654;28;20107;-65
2022/12/22 07:08:00;;;;;;;27.70;18.00;;;10.00;99.90;;;;;;5034466;28;20018;-65
2022/12/22 07:13:19;;;;;;;24.00;14.65;;;10.00;99.90;;;;;;5017038;28;20508;-65
2022/12/22 07:15:48;;;;;;;22.67;14.65;;;10.00;99.90;;;;;;5024004;28;20075;-65
2022/12/22 07:18:14;;;;;;;28.40;15.85;;;10.00;99.90;;;;;;5018951;28;20032;-65
2022/12/22 07:20:39;;;;;;;26.67;15.93;;;10.00;99.90;;;;;;5023122;28;20030;-65
2022/12/22 07:23:17;;;;;;;22.80;14.40;;;9.90;99.90;;;;;;5014233;28;20029;-65
2022/12/22 07:29:02;;;;;;;22.80;12.98;;;10.00;99.90;;;;;;5013705;28;20053;-65
2022/12/22 07:31:28;;;;;;;27.48;15.02;;;9.90;99.90;;;;;;5026896;28;20057;-65
2022/12/22 07:33:53;;;;;;;31.10;15.77;;;9.90;99.90;;;;;;5013797;28;20501;-65
2022/12/22 07:36:19;;;;;;;29.95;15.88;;;9.90;99.90;;;;;;5017601;28;20038;-65
2022/12/22 07:38:47;;;;;;;29.80;16.15;;;9.90;99.90;;;;;;5012640;28;20026;-65
2022/12/22 07:44:00;;;;;;;26.90;14.77;;;9.90;99.90;;;;;;5012376;28;20060;-65
2022/12/22 07:46:27;;;;;;;33.15;17.48;;;9.90;99.90;;;;;;5029716;28;20026;-65
2022/12/22 07:51:39;;;;;;;47.63;24.08;;;9.90;99.90;;;;;;5024413;28;20106;-65
2022/12/22 07:54:07;;;;;;;46.90;23.45;;;9.90;99.90;;;;;;5031802;28;20112;-65
2022/12/22 07:56:33;;;;;;;48.50;22.67;;;9.90;99.90;;;;;;5032246;28;20022;-65
2022/12/22 07:58:59;;;;;;;43.10;21.60;;;9.80;99.90;;;;;;5022711;28;20513;-65
2022/12/22 08:04:18;;;;;;;48.58;22.73;;;9.80;99.90;;;;;;5019898;28;20477;-65
2022/12/22 08:06:44;;;;;;;50.00;22.55;;;9.80;99.90;;;;;;5021030;28;20112;-65
2022/12/22 08:09:13;;;;;;;48.55;21.35;;;9.80;99.90;;;;;;5016606;28;20030;-65
2022/12/22 08:11:39;;;;;;;53.58;25.25;;;9.80;99.90;;;;;;5019699;28;20466;-65
2022/12/22 08:14:04;;;;;;;49.08;23.33;;;9.80;99.90;;;;;;5014840;28;20372;-65
2022/12/22 08:16:30;;;;;;;47.33;22.90;;;9.80;99.90;;;;;;5014530;28;20033;-65
2022/12/22 08:18:56;;;;;;;42.80;22.38;;;9.80;99.90;;;;;;5013780;28;20018;-65
2022/12/22 08:21:22;;;;;;;43.60;22.17;;;9.80;99.90;;;;;;5014394;28;20014;-65
2022/12/22 08:23:48;;;;;;;39.92;21.10;;;9.80;99.90;;;;;;5017750;28;20030;-65
2022/12/22 08:26:24;;;;;;;41.85;20.67;;;9.80;99.90;;;;;;5026673;28;20022;-65
2022/12/22 08:28:55;;;;;;;39.42;20.85;;;9.80;99.90;;;;;;5014934;28;20060;-65
2022/12/22 08:31:24;;;;;;;38.28;19.63;;;9.80;99.90;;;;;;5011204;28;20026;-65
2022/12/22 08:34:16;;;;;;;;;;;;;;;;;;;;;
2022/12/22 08:36:51;;;;;;;32.85;17.65;;;9.90;99.90;;;;;;5023955;28;20038;-65
2022/12/22 08:39:19;;;;;;;35.92;19.02;;;9.90;99.90;;;;;;5022632;28;20030;-65
2022/12/22 08:41:51;;;;;;;37.53;19.20;;;10.00;99.90;;;;;;5027184;28;20510;-65
2022/12/22 08:44:18;;;;;;;42.15;21.20;;;10.00;99.90;;;;;;5014997;28;20061;-65
2022/12/22 08:46:43;;;;;;;29.05;15.10;;;10.00;99.90;;;;;;5032518;28;20024;-65
2022/12/22 08:49:09;;;;;;;29.48;16.33;;;10.00;99.90;;;;;;5023346;28;20025;-65
2022/12/22 08:51:34;;;;;;;32.22;16.10;;;10.10;99.90;;;;;;5028133;28;20096;-65
2022/12/22 08:54:00;;;;;;;30.90;15.52;;;10.10;99.90;;;;;;5024159;28;20038;-65
2022/12/22 08:56:25;;;;;;;30.98;17.75;;;10.10;99.90;;;;;;5012286;28;20037;-65
2022/12/22 08:58:51;;;;;;;31.40;16.30;;;10.10;99.90;;;;;;5011882;28;20041;-65
2022/12/22 09:01:19;;;;;;;30.25;16.30;;;10.10;99.90;;;;;;5019413;28;20033;-65
2022/12/22 09:03:52;;;;;;;30.10;15.88;;;10.10;99.90;;;;;;5014688;28;20029;-65
2022/12/22 09:06:19;;;;;;;33.38;17.20;;;10.10;99.90;;;;;;5017200;28;20486;-65
2022/12/22 09:08:46;;;;;;;33.80;18.05;;;10.10;99.90;;;;;;5014897;28;20026;-65
2022/12/22 09:11:11;;;;;;;34.05;18.08;;;10.10;99.90;;;;;;5011543;28;20017;-65
2022/12/22 09:13:37;;;;;;;35.97;18.38;;;10.00;99.90;;;;;;5014776;28;20436;-65
2022/12/22 09:16:07;;;;;;;32.85;17.20;;;10.00;99.90;;;;;;5019944;28;20123;-65
2022/12/22 09:18:32;;;;;;;31.30;16.17;;;10.00;99.90;;;;;;5018979;28;20349;-65
2022/12/22 09:20:58;;;;;;;35.22;18.58;;;10.00;99.90;;;;;;5012498;28;20521;-65
2022/12/22 09:23:24;;;;;;;37.03;17.27;;;9.90;99.90;;;;;;5013458;28;20397;-65
2022/12/22 09:25:50;;;;;;;37.42;19.27;;;9.90;99.90;;;;;;5016086;28;20021;-66
2022/12/22 09:39:36;;;;;;;27.67;13.27;;;9.80;99.90;;;;;;4970309;28;20085;-66
2022/12/22 09:41:48;;;;;;;26.00;12.90;;;9.80;99.90;;;;;;4991612;28;20028;-66
2022/12/22 09:44:37;;;;;;;25.35;12.70;;;9.80;99.90;;;;;;5007643;28;20022;-66
2022/12/22 09:47:15;;;;;;;26.63;13.63;;;9.90;99.90;;;;;;4990884;28;20541;-66
2022/12/22 09:49:41;;;;;;;31.48;14.35;;;9.90;99.90;;;;;;4987955;28;20054;-65
2022/12/22 09:55:44;;;;;;;29.58;15.02;;;10.20;99.90;;;;;;4988251;28;20169;-66
2022/12/22 09:58:25;;;;;;;28.20;13.70;;;10.30;99.90;;;;;;4979337;28;20544;-65
2022/12/22 10:01:00;;;;;;;22.35;12.20;;;10.40;99.90;;;;;;4989626;28;20042;-65
2022/12/22 10:03:32;;;;;;;23.75;13.70;;;10.40;99.90;;;;;;4982349;28;20031;-65
2022/12/22 10:06:15;;;;;;;27.27;14.52;;;10.40;99.90;;;;;;4986254;28;20014;-65
2022/12/22 10:08:52;;;;;;;30.33;15.80;;;10.40;99.90;;;;;;4982338;28;20019;-65
2022/12/22 10:11:18;;;;;;;29.63;16.85;;;10.50;99.90;;;;;;4981962;28;20022;-66
2022/12/22 10:13:44;;;;;;;27.80;15.85;;;10.70;99.90;;;;;;4990674;28;20023;-65
2022/12/22 10:16:23;;;;;;;28.65;17.80;;;10.80;99.90;;;;;;4989087;28;20109;-65
2022/12/22 10:19:08;;;;;;;29.30;16.67;;;10.70;99.90;;;;;;4991382;28;20030;-65
2022/12/22 10:21:34;;;;;;;25.52;16.05;;;10.90;99.90;;;;;;4990038;28;20370;-65
2022/12/22 10:23:59;;;;;;;25.13;14.10;;;11.10;99.90;;;;;;4982541;28;20510;-65
2022/12/22 10:26:28;;;;;;;25.00;13.57;;;11.20;99.90;;;;;;4985504;28;20054;-65
2022/12/22 10:28:57;;;;;;;23.13;13.83;;;11.00;99.90;;;;;;4980765;28;20025;-65
2022/12/22 10:31:24;;;;;;;22.55;12.60;;;10.80;99.90;;;;;;4983042;28;20759;-65
2022/12/22 10:33:53;;;;;;;25.45;14.43;;;10.70;99.90;;;;;;4987529;28;20133;-65
2022/12/22 10:36:30;;;;;;;21.63;11.95;;;10.60;99.90;;;;;;4984164;28;20027;-65
2022/12/22 10:39:07;;;;;;;27.83;14.80;;;10.60;99.90;;;;;;5027537;28;20100;-65
2022/12/22 10:41:47;;;;;;;21.63;12.25;;;10.60;99.90;;;;;;5021435;28;20033;-65
2022/12/22 10:44:15;;;;;;;22.45;13.65;;;10.80;99.90;;;;;;5012681;28;20045;-65
2022/12/22 10:46:50;;;;;;;22.33;13.57;;;10.90;99.90;;;;;;5031119;28;20477;-65
2022/12/22 10:49:37;;;;;;;22.77;13.93;;;11.20;99.90;;;;;;5030331;28;20022;-65
2022/12/22 10:52:13;;;;;;;21.85;14.38;;;11.50;99.90;;;;;;5030355;28;20029;-65
2022/12/22 10:55:16;;;;;;;21.38;13.75;;;11.70;99.90;;;;;;5022475;28;20052;-65
2022/12/22 10:58:18;;;;;;;23.92;14.20;;;11.90;99.90;;;;;;5010891;28;20136;-65
2022/12/22 11:00:59;;;;;;;22.40;14.80;;;12.20;99.90;;;;;;5024919;28;20034;-65
2022/12/22 11:03:29;;;;;;;24.80;14.70;;;12.20;99.90;;;;;;5016881;28;20021;-65
2022/12/22 11:05:56;;;;;;;20.00;13.88;;;12.40;99.90;;;;;;5022587;28;20018;-65
2022/12/22 11:08:23;;;;;;;21.23;13.50;;;12.50;99.90;;;;;;5011059;28;20401;-66
2022/12/22 11:11:03;;;;;;;23.98;14.40;;;12.60;99.90;;;;;;5011047;28;20010;-66
2022/12/22 11:13:43;;;;;;;20.60;13.68;;;12.60;99.90;;;;;;5011194;28;20026;-66
2022/12/22 11:16:43;;;;;;;16.45;10.82;;;12.60;99.90;;;;;;5020274;28;20079;-66
2022/12/22 11:19:30;;;;;;;19.42;10.73;;;13.10;99.90;;;;;;5013474;28;20042;-65
2022/12/22 11:22:03;;;;;;;16.23;10.38;;;13.50;99.90;;;;;;5014661;28;20168;-66
2022/12/22 11:24:39;;;;;;;17.80;11.27;;;13.60;99.90;;;;;;5014788;28;20033;-66
2022/12/22 11:27:42;;;;;;;16.35;9.93;;;13.80;99.90;;;;;;5025031;28;20543;-66
2022/12/22 11:30:31;;;;;;;15.55;11.10;;;13.80;99.90;;;;;;5015104;28;20478;-66
2022/12/22 11:33:14;;;;;;;14.13;9.23;;;14.00;99.90;;;;;;5015268;28;20025;-65
2022/12/22 11:36:04;;;;;;;13.73;9.18;;;14.30;99.90;;;;;;5027358;28;20540;-65
2022/12/22 11:38:36;;;;;;;;;;;14.60;99.90;;;;;;5025650;28;20443;-66
2022/12/22 11:41:41;;;;;;;12.27;8.90;;;14.50;99.90;;;;;;5030981;28;20356;-66
2022/12/22 11:44:28;;;;;;;12.50;8.95;;;14.60;99.90;;;;;;5020182;28;20048;-66
2022/12/22 11:47:20;;;;;;;11.80;9.07;;;15.10;99.90;;;;;;5014083;28;20021;-66
2022/12/22 11:50:00;;;;;;;12.85;8.70;;;15.60;99.90;;;;;;5013728;28;20551;-66
2022/12/22 11:52:37;;;;;;;10.85;7.80;;;16.90;99.90;;;;;;5028952;28;20072;-66
2022/12/22 11:55:30;;;;;;;15.35;8.40;;;18.40;98.70;;;;;;5030361;28;20076;-66
2022/12/22 12:01:49;;;;;;;9.48;6.60;;;18.40;92.90;;;;;;5009963;28;20043;-66
2022/12/22 12:04:36;;;;;;;12.88;8.15;;;17.40;93.00;;;;;;5014990;28;20020;-66
2022/12/22 12:07:17;;;;;;;11.70;7.50;;;16.80;93.10;;;;;;5016559;28;20105;-66
2022/12/22 12:09:48;;;;;;;10.63;7.45;;;16.80;93.20;;;;;;5012465;28;20052;-66
2022/12/22 12:12:27;;;;;;;10.15;6.45;;;17.50;91.90;;;;;;5014377;28;20025;-66
2022/12/22 12:15:10;;;;;;;10.13;6.10;;;18.80;90.70;;;;;;5015307;28;20025;-66
2022/12/22 12:17:41;;;;;;;9.27;5.75;;;19.40;87.70;;;;;;5024133;28;20112;-66
2022/12/22 12:20:44;;;;;;;11.10;6.38;;;19.40;83.10;;;;;;5030393;28;20056;-66
2022/12/22 12:23:22;;;;;;;9.43;6.70;;;18.70;80.50;;;;;;5016788;28;20400;-66
2022/12/22 12:26:01;;;;;;;11.55;6.30;;;18.80;81.50;;;;;;5030663;28;20021;-66
2022/12/22 12:28:55;;;;;;;8.75;6.60;;;19.60;79.00;;;;;;5024132;28;20017;-66
2022/12/22 12:31:26;;;;;;;10.00;7.32;;;19.80;76.20;;;;;;5016545;28;20021;-66
2022/12/22 12:33:54;;;;;;;13.18;7.55;;;19.80;74.30;;;;;;5027959;28;20026;-66
2022/12/22 12:36:45;;;;;;;11.05;7.97;;;19.30;72.50;;;;;;5029469;28;20489;-66
2022/12/22 12:39:10;;;;;;;13.35;8.65;;;18.10;74.20;;;;;;5030856;28;20069;-66
2022/12/22 12:42:02;;;;;;;13.88;9.40;;;17.30;76.40;;;;;;5031156;28;20033;-66
2022/12/22 12:44:32;;;;;;;16.05;10.20;;;16.80;78.60;;;;;;5015318;28;20018;-66
2022/12/22 12:47:06;;;;;;;14.68;10.77;;;16.30;80.40;;;;;;5012750;28;20034;-65
2022/12/22 12:49:35;;;;;;;15.23;11.57;;;15.70;82.30;;;;;;5020153;28;20055;-66
2022/12/22 12:52:07;;;;;;;14.80;11.48;;;15.30;84.70;;;;;;5013722;28;20030;-65
2022/12/22 12:54:46;;;;;;;14.82;11.63;;;14.90;85.80;;;;;;5019873;28;20040;-66
2022/12/22 12:57:25;;;;;;;16.25;12.43;;;14.60;87.40;;;;;;5013267;28;20025;-65
2022/12/22 13:00:52;;;;;;;;;;;;;;;;;;;;;
2022/12/22 13:03:38;;;;;;;17.42;12.93;;;15.40;89.70;;;;;;5012727;28;20036;-66
2022/12/22 13:06:07;;;;;;;16.73;13.10;;;16.50;87.00;;;;;;5019481;28;20116;-66
2022/12/22 13:09:00;;;;;;;14.07;11.13;;;17.40;84.20;;;;;;5017188;28;20424;-66
2022/12/22 13:11:30;;;;;;;14.23;10.23;;;18.10;82.00;;;;;;5011973;28;20017;-66
2022/12/22 13:13:56;;;;;;;;;;;17.70;80.80;;;;;;5011462;28;20113;-66
2022/12/22 13:16:25;;;;;;;18.80;14.27;;;17.00;80.70;;;;;;5013431;28;20381;-66
2022/12/22 13:19:20;;;;;;;;;;;;;;;;;;;;;
2022/12/22 13:21:46;;;;;;;20.75;15.75;;;15.30;84.90;;;;;;5014143;28;20032;-65
2022/12/22 13:24:14;;;;;;;20.17;16.50;;;14.70;86.80;;;;;;5028269;28;20401;-66
2022/12/22 13:26:42;;;;;;;20.00;16.90;;;14.00;89.50;;;;;;5028188;28;20029;-65
2022/12/22 13:29:26;;;;;;;23.75;18.00;;;13.70;90.80;;;;;;5028508;28;20025;-65
2022/12/22 13:31:57;;;;;;;20.20;16.85;;;13.30;91.60;;;;;;5023767;28;20050;-65
2022/12/22 13:34:33;;;;;;;21.10;17.83;;;13.00;92.50;;;;;;5010459;28;20066;-65
2022/12/22 13:37:15;;;;;;;25.10;20.23;;;12.80;93.30;;;;;;5013370;28;20390;-66
2022/12/22 13:39:41;;;;;;;23.35;19.50;;;12.60;94.30;;;;;;5016665;28;20048;-66
2022/12/22 13:42:09;;;;;;;22.77;18.40;;;12.60;94.70;;;;;;5017612;28;20029;-65
2022/12/22 13:44:37;;;;;;;24.63;18.45;;;12.60;95.10;;;;;;5013557;28;20095;-65
2022/12/22 13:47:09;;;;;;;25.33;18.67;;;12.60;95.50;;;;;;5023637;28;20032;-65
2022/12/22 13:49:35;;;;;;;27.90;19.85;;;12.50;95.70;;;;;;5018857;28;20022;-65
2022/12/22 13:52:20;;;;;;;22.27;19.15;;;12.20;95.90;;;;;;5031450;28;20044;-65
2022/12/22 13:54:46;;;;;;;24.92;19.70;;;12.10;96.40;;;;;;5014043;28;20037;-65
2022/12/22 13:57:19;;;;;;;23.75;20.25;;;11.90;97.00;;;;;;5015744;28;20030;-65
2022/12/22 13:59:49;;;;;;;27.70;21.70;;;11.80;97.70;;;;;;5020430;28;20033;-65
2022/12/22 14:02:19;;;;;;;25.25;18.95;;;11.70;98.40;;;;;;5020934;28;20033;-66
2022/12/22 14:05:10;;;;;;;25.58;20.08;;;11.60;99.00;;;;;;5024740;28;20030;-65
2022/12/22 14:07:36;;;;;;;27.88;20.52;;;11.50;99.50;;;;;;5027899;28;20057;-65
2022/12/22 14:10:02;;;;;;;25.27;20.17;;;11.40;99.90;;;;;;5023023;28;20099;-66
2022/12/22 14:12:30;;;;;;;25.02;20.38;;;11.30;99.90;;;;;;5026969;28;20057;-65
2022/12/22 14:15:00;;;;;;;26.40;20.50;;;11.20;99.90;;;;;;5017753;28;20022;-66
2022/12/22 14:17:26;;;;;;;26.77;21.43;;;11.20;99.90;;;;;;5012986;28;20401;-66
2022/12/22 14:19:55;;;;;;;25.52;19.60;;;11.10;99.90;;;;;;5029772;28;20104;-65
2022/12/22 14:22:26;;;;;;;26.27;19.52;;;11.10;99.90;;;;;;5016085;28;20026;-66
2022/12/22 14:25:00;;;;;;;22.42;18.73;;;11.00;99.90;;;;;;5014594;28;20077;-65
2022/12/22 14:27:47;;;;;;;24.85;19.70;;;11.00;99.90;;;;;;5018400;28;20030;-65
2022/12/22 14:30:23;;;;;;;22.88;17.65;;;11.00;99.90;;;;;;5020530;28;20029;-66
2022/12/22 14:32:54;;;;;;;26.08;18.95;;;11.00;99.90;;;;;;5014466;28;20033;-65
2022/12/22 14:35:20;;;;;;;24.30;17.75;;;10.90;99.90;;;;;;5010900;28;20537;-66
2022/12/22 14:37:49;;;;;;;25.98;19.42;;;10.90;99.90;;;;;;5013427;28;20042;-65
2022/12/22 14:40:28;;;;;;;24.45;18.27;;;10.80;99.90;;;;;;5015894;28;20492;-65
2022/12/22 14:42:55;;;;;;;24.85;18.02;;;10.70;99.90;;;;;;5013911;28;20021;-65
2022/12/22 14:45:21;;;;;;;24.15;18.85;;;10.60;99.90;;;;;;5015318;28;20404;-66
2022/12/22 14:47:47;;;;;;;24.25;18.25;;;10.60;99.90;;;;;;5015859;28;20018;-65
2022/12/22 14:50:17;;;;;;;21.60;16.80;;;10.50;99.90;;;;;;5021915;28;20036;-66
2022/12/22 14:52:44;;;;;;;22.38;17.35;;;10.50;99.90;;;;;;5018347;28;20239;-66
2022/12/22 14:55:29;;;;;;;22.02;17.02;;;10.40;99.90;;;;;;5045042;28;20467;-66
2022/12/22 14:58:02;;;;;;;22.58;17.27;;;10.40;99.90;;;;;;5040029;28;20017;-66
2022/12/22 15:00:32;;;;;;;25.25;18.35;;;10.30;99.90;;;;;;5037257;28;20037;-66
2022/12/22 15:03:04;;;;;;;30.40;22.05;;;10.30;99.90;;;;;;5038857;28;20046;-66
2022/12/22 15:05:37;;;;;;;33.13;24.13;;;10.20;99.90;;;;;;5037764;28;20044;-66
2022/12/22 15:08:23;;;;;;;33.60;23.15;;;10.10;99.90;;;;;;5030103;28;20029;-66
2022/12/22 15:10:48;;;;;;;32.10;23.20;;;9.90;99.90;;;;;;5032871;28;20033;-66
2022/12/22 15:13:22;;;;;;;30.67;22.75;;;9.80;99.90;;;;;;5034039;28;20110;-66
2022/12/22 15:15:52;;;;;;;33.53;22.70;;;9.70;99.90;;;;;;5038765;28;20033;-66
2022/12/22 15:18:24;;;;;;;32.58;23.17;;;9.70;99.90;;;;;;5040812;28;20517;-66
2022/12/22 15:20:50;;;;;;;30.10;20.45;;;9.60;99.90;;;;;;5035257;28;20057;-66
2022/12/22 15:23:15;;;;;;;27.67;20.17;;;9.50;99.90;;;;;;5015890;28;20517;-66
2022/12/22 15:25:41;;;;;;;27.48;19.17;;;9.50;99.90;;;;;;5025321;28;20070;-66
2022/12/22 15:28:06;;;;;;;26.65;18.80;;;9.40;99.90;;;;;;5033608;28;20065;-66
2022/12/22 15:30:32;;;;;;;24.23;16.73;;;9.40;99.90;;;;;;5018045;28;20036;-65
2022/12/22 15:32:57;;;;;;;24.35;18.13;;;9.30;99.90;;;;;;5026504;28;20025;-66
2022/12/22 15:35:29;;;;;;;24.42;16.70;;;9.30;99.90;;;;;;5018640;28;20029;-66
2022/12/22 15:37:54;;;;;;;23.65;17.42;;;9.30;99.90;;;;;;5033030;28;20045;-66
2022/12/22 15:40:22;;;;;;;24.05;16.77;;;9.30;99.90;;;;;;5019425;28;20046;-66
2022/12/22 15:42:49;;;;;;;25.10;16.70;;;9.30;99.90;;;;;;5014142;28;20094;-66
2022/12/22 15:45:15;;;;;;;24.23;16.85;;;9.20;99.90;;;;;;5013979;28;20107;-66
2022/12/22 15:47:45;;;;;;;24.10;17.23;;;9.20;99.90;;;;;;5023671;28;20026;-66
2022/12/22 15:51:20;;;;;;;22.73;16.93;;;9.20;99.90;;;;;;5033622;28;20069;-66
2022/12/22 15:53:45;;;;;;;25.23;17.80;;;9.10;99.90;;;;;;5026497;28;20303;-66
2022/12/22 15:59:25;;;;;;;26.35;17.73;;;9.00;99.90;;;;;;5014434;28;20533;-66
2022/12/22 16:01:51;;;;;;;28.75;18.85;;;8.90;99.90;;;;;;5015459;28;20112;-66
2022/12/22 16:04:42;;;;;;;;;;;;;;;;;;;;;
2022/12/22 16:07:11;;;;;;;24.13;17.15;;;8.80;99.90;;;;;;5026995;28;20518;-66
2022/12/22 16:09:42;;;;;;;27.48;19.90;;;8.80;99.90;;;;;;5017996;28;20429;-66
2022/12/22 16:12:14;;;;;;;29.55;20.23;;;8.80;99.90;;;;;;5036905;28;20049;-66
2022/12/22 16:14:42;;;;;;;27.98;18.92;;;8.70;99.90;;;;;;5018909;28;20033;-66
2022/12/22 16:20:08;;;;;;;27.95;20.30;;;8.70;99.90;;;;;;5014281;28;20116;-66
2022/12/22 16:22:35;;;;;;;30.15;20.48;;;8.60;99.90;;;;;;5022486;28;20037;-66
2022/12/22 16:25:04;;;;;;;30.85;21.25;;;8.60;99.90;;;;;;5015058;28;20548;-66
2022/12/22 16:27:30;;;;;;;33.90;21.98;;;8.60;99.90;;;;;;5026173;28;20032;-66
2022/12/22 16:29:56;;;;;;;31.85;20.65;;;8.60;99.90;;;;;;5020447;28;20028;-65
2022/12/22 16:32:23;;;;;;;32.55;21.42;;;8.60;99.90;;;;;;5025757;28;20025;-66
2022/12/22 16:34:48;;;;;;;31.88;21.13;;;8.60;99.90;;;;;;5019734;28;20026;-65
2022/12/22 16:37:35;;;;;;;;;;;;;;;;;;;;;
2022/12/22 16:43:30;;;;;;;28.73;20.17;;;8.60;99.90;;;;;;4961576;28;20035;-66
2022/12/22 16:57:34;;;;;;;34.15;22.48;;;8.40;99.90;;;;;;4857429;29;20037;-65
2022/12/22 17:03:40;;;;;;;28.02;20.80;;;8.40;99.90;;;;;;4825709;29;21122;-66
2022/12/22 17:06:07;;;;;;;28.33;21.17;;;8.40;99.90;;;;;;4940515;28;20036;-65
2022/12/22 17:08:38;;;;;;;26.95;21.15;;;8.40;99.90;;;;;;4981767;28;20026;-65
2022/12/22 17:11:07;;;;;;;31.27;21.95;;;8.50;99.90;;;;;;5012512;28;20128;-65
2022/12/22 17:13:32;;;;;;;28.42;22.80;;;8.50;99.90;;;;;;5012786;28;20353;-65
2022/12/22 17:16:00;;;;;;;28.08;21.38;;;8.50;99.90;;;;;;5028269;28;20076;-65
2022/12/22 17:18:26;;;;;;;28.63;21.02;;;8.50;99.90;;;;;;5017853;28;20483;-65
2022/12/22 17:21:10;;;;;;;29.08;21.65;;;8.50;99.90;;;;;;5019901;28;20079;-66
2022/12/22 17:28:02;;;;;;;26.48;20.33;;;8.50;99.90;;;;;;4969081;28;20143;-66
2022/12/22 17:30:27;;;;;;;25.30;19.25;;;8.50;99.90;;;;;;4958934;28;20086;-65
2022/12/22 17:32:53;;;;;;;27.23;19.40;;;8.50;99.90;;;;;;4961458;28;20435;-65